sensor_id;sensor_type;location;lat;lon;timestamp;temperature;humidity
65207;SHT31;58477;48.072;11.970;2023-01-08T00:01:40;0.73;94.96
65207;SHT31;58477;48.072;11.970;2023-01-08T00:04:05;0.85;95.20
65207;SHT31;58477;48.072;11.970;2023-01-08T00:06:31;0.82;94.92
65207;SHT31;58477;48.072;11.970;2023-01-08T00:08:56;0.70;94.77
65207;SHT31;58477;48.072;11.970;2023-01-08T00:11:22;0.62;94.27
65207;SHT31;58477;48.072;11.970;2023-01-08T00:13:47;0.45;94.15
65207;SHT31;58477;48.072;11.970;2023-01-08T00:16:14;0.07;93.80
65207;SHT31;58477;48.072;11.970;2023-01-08T00:18:41;-0.06;94.78
65207;SHT31;58477;48.072;11.970;2023-01-08T00:21:07;0.10;95.42
65207;SHT31;58477;48.072;11.970;2023-01-08T00:23:32;0.10;95.17
65207;SHT31;58477;48.072;11.970;2023-01-08T00:26:03;0.37;95.90
65207;SHT31;58477;48.072;11.970;2023-01-08T00:28:28;0.42;95.40
65207;SHT31;58477;48.072;11.970;2023-01-08T00:30:54;0.31;95.08
65207;SHT31;58477;48.072;11.970;2023-01-08T00:33:19;0.35;95.47
65207;SHT31;58477;48.072;11.970;2023-01-08T00:35:45;0.29;95.29
65207;SHT31;58477;48.072;11.970;2023-01-08T00:38:11;0.48;95.86
65207;SHT31;58477;48.072;11.970;2023-01-08T00:40:36;0.73;95.55
65207;SHT31;58477;48.072;11.970;2023-01-08T00:43:03;0.82;95.07
65207;SHT31;58477;48.072;11.970;2023-01-08T00:45:29;0.85;95.31
65207;SHT31;58477;48.072;11.970;2023-01-08T00:47:54;0.72;95.88
65207;SHT31;58477;48.072;11.970;2023-01-08T00:50:20;0.59;95.73
65207;SHT31;58477;48.072;11.970;2023-01-08T00:52:45;0.72;96.44
65207;SHT31;58477;48.072;11.970;2023-01-08T00:55:11;0.75;96.12
65207;SHT31;58477;48.072;11.970;2023-01-08T00:57:37;0.58;96.03
65207;SHT31;58477;48.072;11.970;2023-01-08T01:00:05;0.75;95.83
65207;SHT31;58477;48.072;11.970;2023-01-08T01:02:34;0.75;95.28
65207;SHT31;58477;48.072;11.970;2023-01-08T01:04:59;0.57;94.68
65207;SHT31;58477;48.072;11.970;2023-01-08T01:07:24;0.68;95.12
65207;SHT31;58477;48.072;11.970;2023-01-08T01:09:50;0.85;94.78
65207;SHT31;58477;48.072;11.970;2023-01-08T01:12:15;0.83;94.32
65207;SHT31;58477;48.072;11.970;2023-01-08T01:14:41;0.72;94.13
65207;SHT31;58477;48.072;11.970;2023-01-08T01:17:06;0.72;95.22
65207;SHT31;58477;48.072;11.970;2023-01-08T01:19:31;0.59;95.39
65207;SHT31;58477;48.072;11.970;2023-01-08T01:21:57;0.58;95.33
65207;SHT31;58477;48.072;11.970;2023-01-08T01:24:23;0.70;95.21
65207;SHT31;58477;48.072;11.970;2023-01-08T01:26:52;0.72;94.79
65207;SHT31;58477;48.072;11.970;2023-01-08T01:29:17;0.75;95.39
65207;SHT31;58477;48.072;11.970;2023-01-08T01:31:43;0.85;94.86
65207;SHT31;58477;48.072;11.970;2023-01-08T01:34:09;0.68;94.34
65207;SHT31;58477;48.072;11.970;2023-01-08T01:36:35;0.57;94.86
65207;SHT31;58477;48.072;11.970;2023-01-08T01:39:01;0.48;95.03
65207;SHT31;58477;48.072;11.970;2023-01-08T01:41:27;0.45;94.87
65207;SHT31;58477;48.072;11.970;2023-01-08T01:43:55;0.15;94.35
65207;SHT31;58477;48.072;11.970;2023-01-08T01:48:59;-0.06;95.19
65207;SHT31;58477;48.072;11.970;2023-01-08T01:51:30;0.05;95.99
65207;SHT31;58477;48.072;11.970;2023-01-08T01:53:57;-0.07;96.52
65207;SHT31;58477;48.072;11.970;2023-01-08T01:56:23;-0.06;96.76
65207;SHT31;58477;48.072;11.970;2023-01-08T01:58:49;-0.16;96.60
65207;SHT31;58477;48.072;11.970;2023-01-08T02:01:14;-0.05;96.31
65207;SHT31;58477;48.072;11.970;2023-01-08T02:03:40;0.05;96.03
65207;SHT31;58477;48.072;11.970;2023-01-08T02:11:46;0.88;91.06
65207;SHT31;58477;48.072;11.970;2023-01-08T02:14:19;0.95;90.69
65207;SHT31;58477;48.072;11.970;2023-01-08T02:19:54;1.04;89.53
65207;SHT31;58477;48.072;11.970;2023-01-08T02:22:45;1.02;89.03
65207;SHT31;58477;48.072;11.970;2023-01-08T02:28:15;1.00;88.25
65207;SHT31;58477;48.072;11.970;2023-01-08T02:30:42;1.22;86.94
65207;SHT31;58477;48.072;11.970;2023-01-08T02:33:36;1.24;86.36
65207;SHT31;58477;48.072;11.970;2023-01-08T02:36:37;1.22;86.04
65207;SHT31;58477;48.072;11.970;2023-01-08T02:52:30;1.02;87.10
65207;SHT31;58477;48.072;11.970;2023-01-08T02:54:58;0.89;86.11
65207;SHT31;58477;48.072;11.970;2023-01-08T02:57:27;0.76;87.58
65207;SHT31;58477;48.072;11.970;2023-01-08T02:59:56;0.68;88.61
65207;SHT31;58477;48.072;11.970;2023-01-08T03:02:22;0.69;88.14
65207;SHT31;58477;48.072;11.970;2023-01-08T03:04:52;0.58;89.10
65207;SHT31;58477;48.072;11.970;2023-01-08T03:07:19;0.45;89.89
65207;SHT31;58477;48.072;11.970;2023-01-08T03:09:45;0.54;88.98
65207;SHT31;58477;48.072;11.970;2023-01-08T03:12:17;0.72;87.58
65207;SHT31;58477;48.072;11.970;2023-01-08T03:14:58;0.83;86.90
65207;SHT31;58477;48.072;11.970;2023-01-08T03:17:28;0.86;86.88
65207;SHT31;58477;48.072;11.970;2023-01-08T03:20:02;0.83;87.02
65207;SHT31;58477;48.072;11.970;2023-01-08T03:22:30;0.76;87.27
65207;SHT31;58477;48.072;11.970;2023-01-08T03:24:57;0.62;87.99
65207;SHT31;58477;48.072;11.970;2023-01-08T03:27:26;0.59;87.97
65207;SHT31;58477;48.072;11.970;2023-01-08T03:29:54;0.55;87.89
65207;SHT31;58477;48.072;11.970;2023-01-08T03:32:23;0.47;89.01
65207;SHT31;58477;48.072;11.970;2023-01-08T03:34:53;0.40;89.68
65207;SHT31;58477;48.072;11.970;2023-01-08T03:37:24;0.38;89.24
65207;SHT31;58477;48.072;11.970;2023-01-08T03:42:30;-0.38;90.72
65207;SHT31;58477;48.072;11.970;2023-01-08T03:44:57;-0.64;91.61
65207;SHT31;58477;48.072;11.970;2023-01-08T03:47:23;-0.71;92.18
65207;SHT31;58477;48.072;11.970;2023-01-08T03:49:50;-0.54;92.25
65207;SHT31;58477;48.072;11.970;2023-01-08T03:52:24;-0.50;92.23
65207;SHT31;58477;48.072;11.970;2023-01-08T03:54:50;-0.50;92.29
65207;SHT31;58477;48.072;11.970;2023-01-08T03:57:16;-0.31;91.37
65207;SHT31;58477;48.072;11.970;2023-01-08T03:59:41;-0.13;90.72
65207;SHT31;58477;48.072;11.970;2023-01-08T04:02:07;-0.02;90.43
65207;SHT31;58477;48.072;11.970;2023-01-08T04:04:33;-0.23;91.15
65207;SHT31;58477;48.072;11.970;2023-01-08T04:06:58;-0.21;91.53
65207;SHT31;58477;48.072;11.970;2023-01-08T04:09:23;-0.31;91.97
65207;SHT31;58477;48.072;11.970;2023-01-08T04:11:49;-0.17;91.48
65207;SHT31;58477;48.072;11.970;2023-01-08T04:14:14;-0.24;91.41
65207;SHT31;58477;48.072;11.970;2023-01-08T04:16:40;-0.33;91.55
65207;SHT31;58477;48.072;11.970;2023-01-08T04:19:05;-0.26;91.67
65207;SHT31;58477;48.072;11.970;2023-01-08T04:21:31;-0.11;91.32
65207;SHT31;58477;48.072;11.970;2023-01-08T04:23:56;-0.14;91.35
65207;SHT31;58477;48.072;11.970;2023-01-08T04:26:21;-0.19;91.12
65207;SHT31;58477;48.072;11.970;2023-01-08T04:28:47;-0.37;91.55
65207;SHT31;58477;48.072;11.970;2023-01-08T04:31:12;-0.45;92.05
65207;SHT31;58477;48.072;11.970;2023-01-08T04:33:38;-0.33;91.47
65207;SHT31;58477;48.072;11.970;2023-01-08T04:36:04;-0.31;91.41
65207;SHT31;58477;48.072;11.970;2023-01-08T04:38:29;-0.33;91.45
65207;SHT31;58477;48.072;11.970;2023-01-08T04:41:01;-0.40;91.41
65207;SHT31;58477;48.072;11.970;2023-01-08T04:43:28;-0.29;91.36
65207;SHT31;58477;48.072;11.970;2023-01-08T04:46:01;-0.05;90.60
65207;SHT31;58477;48.072;11.970;2023-01-08T04:48:27;-0.03;89.79
65207;SHT31;58477;48.072;11.970;2023-01-08T04:50:53;0.07;89.93
65207;SHT31;58477;48.072;11.970;2023-01-08T04:53:18;-0.02;90.61
65207;SHT31;58477;48.072;11.970;2023-01-08T04:55:44;-0.17;90.82
65207;SHT31;58477;48.072;11.970;2023-01-08T04:58:11;-0.47;91.23
65207;SHT31;58477;48.072;11.970;2023-01-08T05:00:38;-0.74;91.46
65207;SHT31;58477;48.072;11.970;2023-01-08T05:03:03;-0.71;93.09
65207;SHT31;58477;48.072;11.970;2023-01-08T05:05:29;-0.53;92.62
65207;SHT31;58477;48.072;11.970;2023-01-08T05:07:54;-0.65;92.17
65207;SHT31;58477;48.072;11.970;2023-01-08T05:10:19;-0.77;93.02
65207;SHT31;58477;48.072;11.970;2023-01-08T05:12:45;-0.62;93.01
65207;SHT31;58477;48.072;11.970;2023-01-08T05:15:10;-0.82;92.28
65207;SHT31;58477;48.072;11.970;2023-01-08T05:17:35;-0.95;93.02
65207;SHT31;58477;48.072;11.970;2023-01-08T05:20:01;-0.68;92.38
65207;SHT31;58477;48.072;11.970;2023-01-08T05:22:26;-0.51;91.63
65207;SHT31;58477;48.072;11.970;2023-01-08T05:24:52;-0.41;91.06
65207;SHT31;58477;48.072;11.970;2023-01-08T05:27:17;-0.24;90.43
65207;SHT31;58477;48.072;11.970;2023-01-08T05:29:42;-0.24;90.29
65207;SHT31;58477;48.072;11.970;2023-01-08T05:32:14;-0.34;90.53
65207;SHT31;58477;48.072;11.970;2023-01-08T05:34:40;-0.38;91.28
65207;SHT31;58477;48.072;11.970;2023-01-08T05:37:05;-0.50;91.61
65207;SHT31;58477;48.072;11.970;2023-01-08T05:39:30;-0.57;91.62
65207;SHT31;58477;48.072;11.970;2023-01-08T05:41:56;-0.56;91.43
65207;SHT31;58477;48.072;11.970;2023-01-08T05:44:21;-0.68;91.61
65207;SHT31;58477;48.072;11.970;2023-01-08T05:46:46;-0.82;92.04
65207;SHT31;58477;48.072;11.970;2023-01-08T05:49:12;-0.78;92.63
65207;SHT31;58477;48.072;11.970;2023-01-08T05:51:38;-0.92;92.37
65207;SHT31;58477;48.072;11.970;2023-01-08T05:54:03;-1.08;92.67
65207;SHT31;58477;48.072;11.970;2023-01-08T05:56:28;-1.22;92.44
65207;SHT31;58477;48.072;11.970;2023-01-08T05:58:54;-1.06;92.26
65207;SHT31;58477;48.072;11.970;2023-01-08T06:01:20;-0.91;91.88
65207;SHT31;58477;48.072;11.970;2023-01-08T06:03:45;-0.75;91.29
65207;SHT31;58477;48.072;11.970;2023-01-08T06:06:11;-0.72;91.72
65207;SHT31;58477;48.072;11.970;2023-01-08T06:08:37;-0.65;91.30
65207;SHT31;58477;48.072;11.970;2023-01-08T06:11:04;-0.62;91.21
65207;SHT31;58477;48.072;11.970;2023-01-08T06:13:31;-0.60;90.97
65207;SHT31;58477;48.072;11.970;2023-01-08T06:15:57;-0.41;90.68
65207;SHT31;58477;48.072;11.970;2023-01-08T06:18:24;-0.49;90.51
65207;SHT31;58477;48.072;11.970;2023-01-08T06:20:49;-0.50;90.88
65207;SHT31;58477;48.072;11.970;2023-01-08T06:23:14;-0.68;90.99
65207;SHT31;58477;48.072;11.970;2023-01-08T06:25:40;-0.68;91.99
65207;SHT31;58477;48.072;11.970;2023-01-08T06:28:05;-0.58;92.09
65207;SHT31;58477;48.072;11.970;2023-01-08T06:30:31;-0.56;91.90
65207;SHT31;58477;48.072;11.970;2023-01-08T06:32:58;-0.64;92.22
65207;SHT31;58477;48.072;11.970;2023-01-08T06:35:24;-0.58;92.58
65207;SHT31;58477;48.072;11.970;2023-01-08T06:37:49;-0.57;91.82
65207;SHT31;58477;48.072;11.970;2023-01-08T06:40:15;-0.49;91.90
65207;SHT31;58477;48.072;11.970;2023-01-08T06:42:40;-0.42;91.36
65207;SHT31;58477;48.072;11.970;2023-01-08T06:45:07;-0.37;91.37
65207;SHT31;58477;48.072;11.970;2023-01-08T06:47:33;-0.33;91.54
65207;SHT31;58477;48.072;11.970;2023-01-08T06:49:58;-0.34;91.31
65207;SHT31;58477;48.072;11.970;2023-01-08T06:52:24;-0.26;90.51
65207;SHT31;58477;48.072;11.970;2023-01-08T06:54:49;-0.19;89.79
65207;SHT31;58477;48.072;11.970;2023-01-08T06:57:15;-0.17;89.48
65207;SHT31;58477;48.072;11.970;2023-01-08T06:59:40;-0.30;90.76
65207;SHT31;58477;48.072;11.970;2023-01-08T07:02:12;-0.30;91.49
65207;SHT31;58477;48.072;11.970;2023-01-08T07:04:37;-0.34;91.60
65207;SHT31;58477;48.072;11.970;2023-01-08T07:07:03;-0.47;91.99
65207;SHT31;58477;48.072;11.970;2023-01-08T07:09:28;-0.40;90.93
65207;SHT31;58477;48.072;11.970;2023-01-08T07:11:53;-0.34;91.32
65207;SHT31;58477;48.072;11.970;2023-01-08T07:14:19;-0.30;91.24
65207;SHT31;58477;48.072;11.970;2023-01-08T07:16:44;-0.26;91.09
65207;SHT31;58477;48.072;11.970;2023-01-08T07:19:10;-0.44;91.01
65207;SHT31;58477;48.072;11.970;2023-01-08T07:21:35;-0.57;91.67
65207;SHT31;58477;48.072;11.970;2023-01-08T07:24:01;-0.53;92.31
65207;SHT31;58477;48.072;11.970;2023-01-08T07:26:26;-0.42;92.46
65207;SHT31;58477;48.072;11.970;2023-01-08T07:28:52;-0.24;92.33
65207;SHT31;58477;48.072;11.970;2023-01-08T07:31:18;-0.13;91.89
65207;SHT31;58477;48.072;11.970;2023-01-08T07:33:43;-0.13;91.49
65207;SHT31;58477;48.072;11.970;2023-01-08T07:36:09;0.07;90.95
65207;SHT31;58477;48.072;11.970;2023-01-08T07:38:34;0.15;90.36
65207;SHT31;58477;48.072;11.970;2023-01-08T07:40:59;0.10;90.41
65207;SHT31;58477;48.072;11.970;2023-01-08T07:43:25;0.03;90.55
65207;SHT31;58477;48.072;11.970;2023-01-08T07:45:50;0.01;91.38
65207;SHT31;58477;48.072;11.970;2023-01-08T07:48:16;0.07;90.84
65207;SHT31;58477;48.072;11.970;2023-01-08T07:50:42;0.17;90.64
65207;SHT31;58477;48.072;11.970;2023-01-08T07:53:09;0.28;90.49
65207;SHT31;58477;48.072;11.970;2023-01-08T07:55:35;0.25;89.57
65207;SHT31;58477;48.072;11.970;2023-01-08T07:58:06;0.18;89.69
65207;SHT31;58477;48.072;11.970;2023-01-08T08:00:31;0.24;89.98
65207;SHT31;58477;48.072;11.970;2023-01-08T08:03:01;0.27;89.46
65207;SHT31;58477;48.072;11.970;2023-01-08T08:05:27;0.25;89.77
65207;SHT31;58477;48.072;11.970;2023-01-08T08:07:52;0.19;90.21
65207;SHT31;58477;48.072;11.970;2023-01-08T08:10:18;0.28;90.20
65207;SHT31;58477;48.072;11.970;2023-01-08T08:12:44;0.61;90.10
65207;SHT31;58477;48.072;11.970;2023-01-08T08:15:10;0.72;90.36
65207;SHT31;58477;48.072;11.970;2023-01-08T08:17:35;0.58;88.90
65207;SHT31;58477;48.072;11.970;2023-01-08T08:20:01;0.49;89.24
65207;SHT31;58477;48.072;11.970;2023-01-08T08:22:26;0.66;89.70
65207;SHT31;58477;48.072;11.970;2023-01-08T08:24:51;0.92;89.44
65207;SHT31;58477;48.072;11.970;2023-01-08T08:27:17;1.07;89.39
65207;SHT31;58477;48.072;11.970;2023-01-08T08:29:42;1.03;88.22
65207;SHT31;58477;48.072;11.970;2023-01-08T08:32:08;1.07;87.57
65207;SHT31;58477;48.072;11.970;2023-01-08T08:34:33;1.17;88.62
65207;SHT31;58477;48.072;11.970;2023-01-08T08:36:58;1.50;88.23
65207;SHT31;58477;48.072;11.970;2023-01-08T08:39:24;1.65;88.56
65207;SHT31;58477;48.072;11.970;2023-01-08T08:41:49;1.71;88.74
65207;SHT31;58477;48.072;11.970;2023-01-08T08:44:15;1.84;88.78
65207;SHT31;58477;48.072;11.970;2023-01-08T08:46:40;1.93;88.41
65207;SHT31;58477;48.072;11.970;2023-01-08T08:49:05;1.75;86.99
65207;SHT31;58477;48.072;11.970;2023-01-08T08:51:31;1.58;87.89
65207;SHT31;58477;48.072;11.970;2023-01-08T08:53:57;1.54;87.38
65207;SHT31;58477;48.072;11.970;2023-01-08T08:56:22;1.55;86.12
65207;SHT31;58477;48.072;11.970;2023-01-08T08:58:48;1.58;86.12
65207;SHT31;58477;48.072;11.970;2023-01-08T09:01:15;1.89;86.27
65207;SHT31;58477;48.072;11.970;2023-01-08T09:03:40;2.22;87.25
65207;SHT31;58477;48.072;11.970;2023-01-08T09:06:06;2.48;86.33
65207;SHT31;58477;48.072;11.970;2023-01-08T09:08:36;2.35;86.40
65207;SHT31;58477;48.072;11.970;2023-01-08T09:11:01;2.63;85.74
65207;SHT31;58477;48.072;11.970;2023-01-08T09:13:27;2.73;84.42
65207;SHT31;58477;48.072;11.970;2023-01-08T09:15:52;3.07;83.34
65207;SHT31;58477;48.072;11.970;2023-01-08T09:18:18;3.34;83.07
65207;SHT31;58477;48.072;11.970;2023-01-08T09:20:43;3.70;82.46
65207;SHT31;58477;48.072;11.970;2023-01-08T09:23:09;3.45;80.89
65207;SHT31;58477;48.072;11.970;2023-01-08T09:25:34;3.27;80.21
65207;SHT31;58477;48.072;11.970;2023-01-08T09:28:05;4.12;80.23
65207;SHT31;58477;48.072;11.970;2023-01-08T09:30:32;4.73;76.02
65207;SHT31;58477;48.072;11.970;2023-01-08T09:32:58;5.65;75.47
65207;SHT31;58477;48.072;11.970;2023-01-08T09:35:24;6.17;73.78
65207;SHT31;58477;48.072;11.970;2023-01-08T09:37:51;6.38;74.05
65207;SHT31;58477;48.072;11.970;2023-01-08T09:40:17;6.33;71.96
65207;SHT31;58477;48.072;11.970;2023-01-08T09:42:47;6.80;70.77
65207;SHT31;58477;48.072;11.970;2023-01-08T09:45:24;7.20;67.63
65207;SHT31;58477;48.072;11.970;2023-01-08T09:47:50;5.52;71.99
65207;SHT31;58477;48.072;11.970;2023-01-08T09:50:16;6.14;70.95
65207;SHT31;58477;48.072;11.970;2023-01-08T09:52:42;6.44;71.66
65207;SHT31;58477;48.072;11.970;2023-01-08T09:55:14;6.53;72.40
65207;SHT31;58477;48.072;11.970;2023-01-08T09:57:42;6.65;72.38
65207;SHT31;58477;48.072;11.970;2023-01-08T10:00:21;5.97;73.23
65207;SHT31;58477;48.072;11.970;2023-01-08T10:02:49;6.61;73.57
65207;SHT31;58477;48.072;11.970;2023-01-08T10:05:17;6.75;72.05
65207;SHT31;58477;48.072;11.970;2023-01-08T10:07:43;6.70;70.30
65207;SHT31;58477;48.072;11.970;2023-01-08T10:10:21;7.16;70.90
65207;SHT31;58477;48.072;11.970;2023-01-08T10:12:48;7.08;70.60
65207;SHT31;58477;48.072;11.970;2023-01-08T10:15:17;7.12;69.82
65207;SHT31;58477;48.072;11.970;2023-01-08T10:18:04;7.50;69.50
65207;SHT31;58477;48.072;11.970;2023-01-08T10:20:31;6.77;68.85
65207;SHT31;58477;48.072;11.970;2023-01-08T10:23:08;7.06;68.08
65207;SHT31;58477;48.072;11.970;2023-01-08T10:28:22;7.87;67.52
65207;SHT31;58477;48.072;11.970;2023-01-08T10:30:50;8.25;64.13
65207;SHT31;58477;48.072;11.970;2023-01-08T10:33:23;9.02;62.68
65207;SHT31;58477;48.072;11.970;2023-01-08T10:35:56;8.83;60.66
65207;SHT31;58477;48.072;11.970;2023-01-08T10:38:24;9.54;62.27
65207;SHT31;58477;48.072;11.970;2023-01-08T10:40:50;9.57;61.47
65207;SHT31;58477;48.072;11.970;2023-01-08T10:43:17;9.70;60.74
65207;SHT31;58477;48.072;11.970;2023-01-08T10:46:03;8.85;62.37
65207;SHT31;58477;48.072;11.970;2023-01-08T10:48:34;9.57;62.73
65207;SHT31;58477;48.072;11.970;2023-01-08T10:51:05;9.22;63.83
65207;SHT31;58477;48.072;11.970;2023-01-08T10:53:31;8.79;65.97
65207;SHT31;58477;48.072;11.970;2023-01-08T10:56:02;8.38;64.40
65207;SHT31;58477;48.072;11.970;2023-01-08T10:58:29;9.03;61.98
65207;SHT31;58477;48.072;11.970;2023-01-08T11:00:54;8.10;62.65
65207;SHT31;58477;48.072;11.970;2023-01-08T11:03:32;8.30;64.20
65207;SHT31;58477;48.072;11.970;2023-01-08T11:05:58;9.03;63.98
65207;SHT31;58477;48.072;11.970;2023-01-08T11:08:23;9.37;62.71
65207;SHT31;58477;48.072;11.970;2023-01-08T11:10:54;9.74;62.30
65207;SHT31;58477;48.072;11.970;2023-01-08T11:13:20;9.77;63.26
65207;SHT31;58477;48.072;11.970;2023-01-08T11:15:46;10.46;61.25
65207;SHT31;58477;48.072;11.970;2023-01-08T11:18:23;10.07;60.43
65207;SHT31;58477;48.072;11.970;2023-01-08T11:20:51;9.46;64.43
65207;SHT31;58477;48.072;11.970;2023-01-08T11:23:18;8.98;65.57
65207;SHT31;58477;48.072;11.970;2023-01-08T11:25:53;8.92;63.98
65207;SHT31;58477;48.072;11.970;2023-01-08T11:28:26;9.23;64.37
65207;SHT31;58477;48.072;11.970;2023-01-08T11:30:59;8.42;66.16
65207;SHT31;58477;48.072;11.970;2023-01-08T11:33:27;8.27;66.69
65207;SHT31;58477;48.072;11.970;2023-01-08T11:36:03;8.37;65.49
65207;SHT31;58477;48.072;11.970;2023-01-08T11:38:32;8.03;67.84
65207;SHT31;58477;48.072;11.970;2023-01-08T11:41:33;7.58;69.68
65207;SHT31;58477;48.072;11.970;2023-01-08T11:52:06;7.16;71.42
65207;SHT31;58477;48.072;11.970;2023-01-08T11:57:52;7.09;71.64
65207;SHT31;58477;48.072;11.970;2023-01-08T12:00:50;7.11;72.04
65207;SHT31;58477;48.072;11.970;2023-01-08T12:03:29;6.77;72.48
65207;SHT31;58477;48.072;11.970;2023-01-08T12:06:03;6.78;72.83
65207;SHT31;58477;48.072;11.970;2023-01-08T12:11:12;6.80;73.71
65207;SHT31;58477;48.072;11.970;2023-01-08T12:13:58;6.75;74.13
65207;SHT31;58477;48.072;11.970;2023-01-08T12:19:22;6.78;76.38
65207;SHT31;58477;48.072;11.970;2023-01-08T12:22:00;6.61;76.45
65207;SHT31;58477;48.072;11.970;2023-01-08T12:27:21;7.33;73.80
65207;SHT31;58477;48.072;11.970;2023-01-08T12:33:16;7.56;73.83
65207;SHT31;58477;48.072;11.970;2023-01-08T12:35:47;7.59;73.89
65207;SHT31;58477;48.072;11.970;2023-01-08T12:38:20;7.52;74.55
65207;SHT31;58477;48.072;11.970;2023-01-08T12:40:58;7.42;75.43
65207;SHT31;58477;48.072;11.970;2023-01-08T12:43:30;7.52;74.64
65207;SHT31;58477;48.072;11.970;2023-01-08T12:45:59;7.55;74.78
65207;SHT31;58477;48.072;11.970;2023-01-08T12:48:33;7.50;75.15
65207;SHT31;58477;48.072;11.970;2023-01-08T13:02:18;7.06;76.39
65207;SHT31;58477;48.072;11.970;2023-01-08T13:04:50;6.91;77.57
65207;SHT31;58477;48.072;11.970;2023-01-08T13:09:42;6.75;75.75
65207;SHT31;58477;48.072;11.970;2023-01-08T13:12:12;6.73;76.03
65207;SHT31;58477;48.072;11.970;2023-01-08T13:14:46;6.83;73.38
65207;SHT31;58477;48.072;11.970;2023-01-08T13:17:17;6.75;73.20
65207;SHT31;58477;48.072;11.970;2023-01-08T13:19:44;6.80;75.00
65207;SHT31;58477;48.072;11.970;2023-01-08T13:22:29;6.68;74.68
65207;SHT31;58477;48.072;11.970;2023-01-08T13:27:47;6.36;74.57
65207;SHT31;58477;48.072;11.970;2023-01-08T13:30:33;6.34;74.19
65207;SHT31;58477;48.072;11.970;2023-01-08T13:32:59;6.36;74.84
65207;SHT31;58477;48.072;11.970;2023-01-08T13:35:29;6.29;74.30
65207;SHT31;58477;48.072;11.970;2023-01-08T13:38:13;6.30;74.37
65207;SHT31;58477;48.072;11.970;2023-01-08T13:43:39;6.30;76.24
65207;SHT31;58477;48.072;11.970;2023-01-08T13:46:13;6.33;76.96
65207;SHT31;58477;48.072;11.970;2023-01-08T13:48:48;6.50;75.87
65207;SHT31;58477;48.072;11.970;2023-01-08T13:51:29;6.33;74.08
65207;SHT31;58477;48.072;11.970;2023-01-08T13:54:14;6.45;73.00
65207;SHT31;58477;48.072;11.970;2023-01-08T13:56:41;6.40;72.70
65207;SHT31;58477;48.072;11.970;2023-01-08T13:59:20;6.20;73.37
65207;SHT31;58477;48.072;11.970;2023-01-08T14:01:53;6.17;73.11
65207;SHT31;58477;48.072;11.970;2023-01-08T14:04:21;6.29;72.69
65207;SHT31;58477;48.072;11.970;2023-01-08T14:06:46;6.10;77.90
65207;SHT31;58477;48.072;11.970;2023-01-08T14:09:20;6.10;75.44
65207;SHT31;58477;48.072;11.970;2023-01-08T14:11:47;6.09;74.46
65207;SHT31;58477;48.072;11.970;2023-01-08T14:14:17;6.07;72.86
65207;SHT31;58477;48.072;11.970;2023-01-08T14:16:45;6.11;74.55
65207;SHT31;58477;48.072;11.970;2023-01-08T14:19:21;6.02;74.15
65207;SHT31;58477;48.072;11.970;2023-01-08T14:21:52;5.96;74.39
65207;SHT31;58477;48.072;11.970;2023-01-08T14:24:19;6.06;73.36
65207;SHT31;58477;48.072;11.970;2023-01-08T14:26:54;5.95;73.18
65207;SHT31;58477;48.072;11.970;2023-01-08T14:29:22;5.95;72.79
65207;SHT31;58477;48.072;11.970;2023-01-08T14:31:52;5.77;73.07
65207;SHT31;58477;48.072;11.970;2023-01-08T14:34:20;5.72;73.09
65207;SHT31;58477;48.072;11.970;2023-01-08T14:36:49;5.77;72.08
65207;SHT31;58477;48.072;11.970;2023-01-08T14:39:32;5.79;72.16
65207;SHT31;58477;48.072;11.970;2023-01-08T14:42:09;5.77;72.63
65207;SHT31;58477;48.072;11.970;2023-01-08T14:44:57;5.70;73.01
65207;SHT31;58477;48.072;11.970;2023-01-08T14:47:28;5.67;72.82
65207;SHT31;58477;48.072;11.970;2023-01-08T14:49:54;5.63;72.92
65207;SHT31;58477;48.072;11.970;2023-01-08T14:52:20;5.70;72.55
65207;SHT31;58477;48.072;11.970;2023-01-08T14:54:49;5.79;72.54
65207;SHT31;58477;48.072;11.970;2023-01-08T14:57:16;5.89;72.60
65207;SHT31;58477;48.072;11.970;2023-01-08T15:00:13;5.79;73.68
65207;SHT31;58477;48.072;11.970;2023-01-08T15:02:33;5.67;75.31
65207;SHT31;58477;48.072;11.970;2023-01-08T15:05:30;5.63;75.00
65207;SHT31;58477;48.072;11.970;2023-01-08T15:08:18;5.67;74.19
65207;SHT31;58477;48.072;11.970;2023-01-08T15:10:57;5.63;74.31
65207;SHT31;58477;48.072;11.970;2023-01-08T15:13:24;5.56;75.05
65207;SHT31;58477;48.072;11.970;2023-01-08T15:15:57;5.63;79.28
65207;SHT31;58477;48.072;11.970;2023-01-08T15:18:23;5.67;80.47
65207;SHT31;58477;48.072;11.970;2023-01-08T15:20:49;5.75;80.84
65207;SHT31;58477;48.072;11.970;2023-01-08T15:23:23;5.62;81.10
65207;SHT31;58477;48.072;11.970;2023-01-08T15:25:51;5.52;81.49
65207;SHT31;58477;48.072;11.970;2023-01-08T15:28:18;5.48;81.66
65207;SHT31;58477;48.072;11.970;2023-01-08T15:30:46;5.42;82.36
65207;SHT31;58477;48.072;11.970;2023-01-08T15:33:23;5.35;82.01
65207;SHT31;58477;48.072;11.970;2023-01-08T15:35:49;5.30;82.44
65207;SHT31;58477;48.072;11.970;2023-01-08T15:38:16;5.25;82.40
65207;SHT31;58477;48.072;11.970;2023-01-08T15:40:42;5.07;82.61
65207;SHT31;58477;48.072;11.970;2023-01-08T15:43:13;4.92;83.47
65207;SHT31;58477;48.072;11.970;2023-01-08T15:45:46;5.01;83.37
65207;SHT31;58477;48.072;11.970;2023-01-08T15:48:12;4.98;83.56
65207;SHT31;58477;48.072;11.970;2023-01-08T15:50:39;4.83;84.05
65207;SHT31;58477;48.072;11.970;2023-01-08T15:53:20;4.66;84.21
65207;SHT31;58477;48.072;11.970;2023-01-08T15:55:46;4.66;84.75
65207;SHT31;58477;48.072;11.970;2023-01-08T15:58:13;4.57;84.62
65207;SHT31;58477;48.072;11.970;2023-01-08T16:00:40;4.73;84.33
65207;SHT31;58477;48.072;11.970;2023-01-08T16:03:06;4.81;83.83
65207;SHT31;58477;48.072;11.970;2023-01-08T16:05:32;4.70;83.71
65207;SHT31;58477;48.072;11.970;2023-01-08T16:07:58;4.57;84.07
65207;SHT31;58477;48.072;11.970;2023-01-08T16:10:24;4.47;83.77
65207;SHT31;58477;48.072;11.970;2023-01-08T16:12:49;4.43;84.14
65207;SHT31;58477;48.072;11.970;2023-01-08T16:15:15;4.53;83.43
65207;SHT31;58477;48.072;11.970;2023-01-08T16:17:41;4.50;83.03
65207;SHT31;58477;48.072;11.970;2023-01-08T16:20:08;4.46;82.21
65207;SHT31;58477;48.072;11.970;2023-01-08T16:22:34;4.50;82.50
65207;SHT31;58477;48.072;11.970;2023-01-08T16:24:59;4.52;83.03
65207;SHT31;58477;48.072;11.970;2023-01-08T16:27:25;4.53;82.87
65207;SHT31;58477;48.072;11.970;2023-01-08T16:29:50;4.61;82.49
65207;SHT31;58477;48.072;11.970;2023-01-08T16:32:16;4.69;81.96
65207;SHT31;58477;48.072;11.970;2023-01-08T16:34:41;4.56;81.77
65207;SHT31;58477;48.072;11.970;2023-01-08T16:37:07;4.50;82.38
65207;SHT31;58477;48.072;11.970;2023-01-08T16:39:32;4.47;82.85
65207;SHT31;58477;48.072;11.970;2023-01-08T16:41:58;4.49;82.56
65207;SHT31;58477;48.072;11.970;2023-01-08T16:44:25;4.36;82.71
65207;SHT31;58477;48.072;11.970;2023-01-08T16:46:54;4.26;83.40
65207;SHT31;58477;48.072;11.970;2023-01-08T16:49:20;4.02;84.29
65207;SHT31;58477;48.072;11.970;2023-01-08T16:51:46;4.10;83.95